Time;durP1;ratioP1;P1;durP2;ratioP2;P2;SDS_P1;SDS_P2;PMS_P1;PMS_P2;Temp;Humidity;BMP_temperature;BMP_pressure;BME280_temperature;BME280_humidity;BME280_pressure;Samples;Min_cycle;Max_cycle;Signal;HPM_P1;HPM_P2
2022/12/05 02:25:03;;;;;;;10.63;3.87;;;;;;;;;;1833887;77;28020;-67
2022/12/05 02:27:38;;;;;;;8.28;3.37;;;;;;;;;;1812573;79;20977;-68
2022/12/05 02:30:06;;;;;;;11.73;4.17;;;;;;;;;;1792422;78;21108;-68
2022/12/05 02:32:37;;;;;;;9.65;3.87;;;;;;;;;;1821315;78;20957;-68
2022/12/05 02:35:08;;;;;;;7.50;3.95;;;;;;;;;;1819027;79;20992;-68
2022/12/05 02:37:43;;;;;;;6.12;3.40;;;;;;;;;;1815925;78;21078;-68
2022/12/05 02:40:11;;;;;;;5.15;3.17;;;;;;;;;;1779536;78;20952;-67
2022/12/05 02:42:39;;;;;;;5.37;3.55;;;;;;;;;;1819110;79;21546;-68
2022/12/05 02:45:08;;;;;;;7.70;3.42;;;;;;;;;;1819545;79;21019;-67
2022/12/05 02:47:37;;;;;;;6.75;2.85;;;;;;;;;;1818768;78;21542;-68
2022/12/05 02:50:03;;;;;;;7.20;3.12;;;;;;;;;;1787093;78;21048;-68
2022/12/05 02:52:30;;;;;;;6.80;3.83;;;;;;;;;;1817410;79;21065;-68
2022/12/05 02:54:56;;;;;;;7.33;3.50;;;;;;;;;;1816788;79;21010;-68
2022/12/05 02:57:23;;;;;;;5.28;3.40;;;;;;;;;;1816358;78;21010;-68
2022/12/05 02:59:50;;;;;;;5.83;3.50;;;;;;;;;;1816423;78;21031;-67
2022/12/05 03:02:23;;;;;;;6.33;3.20;;;;;;;;;;1820469;78;20974;-68
2022/12/05 03:04:51;;;;;;;5.17;2.85;;;;;;;;;;1821462;78;21058;-68
2022/12/05 03:07:18;;;;;;;5.45;3.30;;;;;;;;;;1816682;79;21009;-68
2022/12/05 03:09:45;;;;;;;6.65;3.47;;;;;;;;;;1819648;78;20972;-69
2022/12/05 03:12:14;;;;;;;9.83;4.28;;;;;;;;;;1819581;78;20986;-68
2022/12/05 03:14:41;;;;;;;5.40;3.20;;;;;;;;;;1808633;78;21629;-68
2022/12/05 03:17:10;;;;;;;6.12;3.40;;;;;;;;;;1793190;80;21062;-68
2022/12/05 03:19:50;;;;;;;7.90;3.42;;;;;;;;;;1792699;80;22089;-68
2022/12/05 03:22:34;;;;;;;8.43;3.85;;;;;;;;;;1792618;80;21007;-69
2022/12/05 03:25:00;;;;;;;7.65;3.62;;;;;;;;;;1792383;80;21062;-68
2022/12/05 03:27:37;;;;;;;7.90;3.70;;;;;;;;;;1795243;80;21467;-68
2022/12/05 03:30:09;;;;;;;5.03;2.87;;;;;;;;;;1760246;81;21075;-68
2022/12/05 03:32:37;;;;;;;9.38;3.27;;;;;;;;;;1788728;80;21074;-68
2022/12/05 03:35:11;;;;;;;6.67;3.85;;;;;;;;;;1781756;80;21501;-68
2022/12/05 03:37:42;;;;;;;7.42;3.50;;;;;;;;;;1779858;80;21038;-67
2022/12/05 03:40:22;;;;;;;7.70;3.47;;;;;;;;;;1789021;80;21011;-67
2022/12/05 03:42:50;;;;;;;12.75;4.30;;;;;;;;;;1716051;83;21581;-68
2022/12/05 03:45:17;;;;;;;8.58;3.45;;;;;;;;;;1709434;83;21037;-68
2022/12/05 03:47:52;;;;;;;10.50;3.50;;;;;;;;;;1746335;81;21042;-68
2022/12/05 03:50:25;;;;;;;7.83;4.30;;;;;;;;;;1751602;81;21036;-68
2022/12/05 03:52:56;;;;;;;9.95;4.05;;;;;;;;;;1759485;81;21040;-68
2022/12/05 03:55:22;;;;;;;10.55;3.77;;;;;;;;;;1757864;81;21047;-68
2022/12/05 03:57:50;;;;;;;7.33;3.58;;;;;;;;;;1766923;81;21182;-68
2022/12/05 04:00:17;;;;;;;8.35;3.60;;;;;;;;;;1746192;81;21524;-68
2022/12/05 04:02:48;;;;;;;6.58;3.12;;;;;;;;;;1743957;82;21046;-69
2022/12/05 04:05:19;;;;;;;5.70;3.30;;;;;;;;;;1747028;81;21021;-69
2022/12/05 04:07:48;;;;;;;7.60;4.10;;;;;;;;;;1762552;81;21093;-68
2022/12/05 04:10:15;;;;;;;4.60;3.37;;;;;;;;;;1746306;81;21603;-68
2022/12/05 04:12:41;;;;;;;9.60;3.52;;;;;;;;;;1712983;83;21054;-68
2022/12/05 04:15:09;;;;;;;9.18;3.60;;;;;;;;;;1744989;81;21612;-68
2022/12/05 04:17:54;;;;;;;6.70;3.70;;;;;;;;;;1748642;81;21010;-68
2022/12/05 04:23:07;;;;;;;7.03;3.52;;;;;;;;;;1769585;81;21551;-69
2022/12/05 04:25:38;;;;;;;4.83;3.25;;;;;;;;;;1762601;81;21540;-67
2022/12/05 04:28:12;;;;;;;5.70;2.85;;;;;;;;;;1768415;81;21026;-68
2022/12/05 04:30:41;;;;;;;9.40;3.37;;;;;;;;;;1757806;81;21051;-69
2022/12/05 04:33:10;;;;;;;7.28;3.58;;;;;;;;;;1757882;81;21032;-69
2022/12/05 04:35:41;;;;;;;12.37;3.70;;;;;;;;;;1765715;81;20964;-69
2022/12/05 04:38:08;;;;;;;6.92;3.85;;;;;;;;;;1787866;80;21019;-69
2022/12/05 04:40:36;;;;;;;7.50;3.12;;;;;;;;;;1785158;80;21551;-69
2022/12/05 04:43:02;;;;;;;6.30;3.00;;;;;;;;;;1748219;82;21049;-68
2022/12/05 04:45:28;;;;;;;7.00;3.75;;;;;;;;;;1787809;80;20988;-68
2022/12/05 04:47:55;;;;;;;6.22;3.70;;;;;;;;;;1788055;80;21452;-68
2022/12/05 04:50:22;;;;;;;6.15;3.30;;;;;;;;;;1787579;79;20988;-69
2022/12/05 04:52:49;;;;;;;6.90;3.40;;;;;;;;;;1787629;80;21070;-69
2022/12/05 04:55:16;;;;;;;6.00;3.00;;;;;;;;;;1787804;80;21487;-70
2022/12/05 04:57:49;;;;;;;5.62;3.37;;;;;;;;;;1790262;80;20982;-69
2022/12/05 05:00:16;;;;;;;6.20;3.40;;;;;;;;;;1787872;79;21027;-69
2022/12/05 05:02:53;;;;;;;6.78;3.42;;;;;;;;;;1783478;79;21049;-69
2022/12/05 05:05:19;;;;;;;7.30;2.95;;;;;;;;;;1776368;80;21507;-69
2022/12/05 05:07:47;;;;;;;8.18;4.03;;;;;;;;;;1781788;79;21070;-69
2022/12/05 05:10:14;;;;;;;6.92;3.17;;;;;;;;;;1787784;80;22100;-71
2022/12/05 05:12:40;;;;;;;9.38;3.87;;;;;;;;;;1787701;80;21082;-69
2022/12/05 05:15:07;;;;;;;6.12;3.02;;;;;;;;;;1768309;80;21074;-69
2022/12/05 05:17:33;;;;;;;6.45;3.75;;;;;;;;;;1747834;82;21048;-68
2022/12/05 05:22:46;;;;;;;5.95;3.15;;;;;;;;;;1779568;80;21055;-68
2022/12/05 05:25:12;;;;;;;9.35;3.98;;;;;;;;;;1769491;80;22223;-69
2022/12/05 05:27:38;;;;;;;6.95;4.05;;;;;;;;;;1752215;81;20983;-70
2022/12/05 05:30:04;;;;;;;7.92;3.77;;;;;;;;;;1763898;80;20996;-69
2022/12/05 05:32:34;;;;;;;7.83;3.67;;;;;;;;;;1757803;80;21019;-69
2022/12/05 05:35:00;;;;;;;8.10;3.00;;;;;;;;;;1766327;81;21514;-69
2022/12/05 05:37:26;;;;;;;6.70;3.80;;;;;;;;;;1787825;80;21459;-69
2022/12/05 05:39:52;;;;;;;8.35;3.70;;;;;;;;;;1787794;80;21015;-69
2022/12/05 05:42:18;;;;;;;5.62;3.05;;;;;;;;;;1786887;80;20999;-69
2022/12/05 05:44:44;;;;;;;5.75;3.12;;;;;;;;;;1785475;79;21078;-69
2022/12/05 05:47:10;;;;;;;6.30;3.15;;;;;;;;;;1773256;80;21042;-68
2022/12/05 05:49:36;;;;;;;8.13;3.83;;;;;;;;;;1779199;79;21009;-69
2022/12/05 05:52:02;;;;;;;6.17;4.15;;;;;;;;;;1779618;80;20999;-70
2022/12/05 05:54:28;;;;;;;5.35;2.98;;;;;;;;;;1762816;81;21048;-68
2022/12/05 05:56:54;;;;;;;6.87;3.60;;;;;;;;;;1763379;80;21036;-69
2022/12/05 05:59:20;;;;;;;7.83;3.50;;;;;;;;;;1764515;79;21005;-70
2022/12/05 06:01:46;;;;;;;7.35;3.72;;;;;;;;;;1769244;80;21521;-69
2022/12/05 06:04:12;;;;;;;9.65;4.10;;;;;;;;;;1757573;81;21001;-69
2022/12/05 06:06:39;;;;;;;8.10;4.37;;;;;;;;;;1757256;81;21010;-70
2022/12/05 06:09:05;;;;;;;8.45;3.02;;;;;;;;;;1757460;81;20980;-69
2022/12/05 06:11:32;;;;;;;8.03;3.87;;;;;;;;;;1778298;80;21511;-69
2022/12/05 06:14:01;;;;;;;7.60;3.60;;;;;;;;;;1773597;80;21074;-69
2022/12/05 06:16:27;;;;;;;8.28;3.45;;;;;;;;;;1756862;82;21019;-70
2022/12/05 06:18:53;;;;;;;7.58;3.62;;;;;;;;;;1754349;81;20976;-70
2022/12/05 06:21:20;;;;;;;7.00;4.00;;;;;;;;;;1785123;80;21491;-70
2022/12/05 06:23:46;;;;;;;6.95;3.87;;;;;;;;;;1778429;79;22132;-70
2022/12/05 06:26:13;;;;;;;6.83;3.80;;;;;;;;;;1756184;80;21086;-70
2022/12/05 06:28:40;;;;;;;6.33;3.45;;;;;;;;;;1749475;81;20976;-70
2022/12/05 06:31:10;;;;;;;5.65;3.70;;;;;;;;;;1756531;80;21029;-69
2022/12/05 06:33:36;;;;;;;10.45;4.35;;;;;;;;;;1758123;80;21014;-69
2022/12/05 06:36:03;;;;;;;14.40;5.53;;;;;;;;;;1744014;82;21021;-69
2022/12/05 06:38:29;;;;;;;7.15;3.83;;;;;;;;;;1743552;81;21088;-70
2022/12/05 06:40:55;;;;;;;9.33;4.12;;;;;;;;;;1741658;81;21014;-70
2022/12/05 06:43:22;;;;;;;8.73;4.30;;;;;;;;;;1742606;81;21039;-70
2022/12/05 06:45:48;;;;;;;7.42;4.30;;;;;;;;;;1741990;81;21061;-70
2022/12/05 06:48:13;;;;;;;6.95;4.05;;;;;;;;;;1742555;81;21001;-70
2022/12/05 06:50:42;;;;;;;9.28;4.67;;;;;;;;;;1742697;81;21038;-70
2022/12/05 06:53:07;;;;;;;7.35;4.22;;;;;;;;;;1741014;81;21074;-70
2022/12/05 06:55:34;;;;;;;12.23;4.97;;;;;;;;;;1739623;81;21067;-68
2022/12/05 06:58:00;;;;;;;11.12;4.12;;;;;;;;;;1755660;80;21012;-68
2022/12/05 07:03:10;;;;;;;7.92;4.58;;;;;;;;;;1714769;83;21562;-70
2022/12/05 07:05:36;;;;;;;6.62;4.12;;;;;;;;;;1744127;82;21439;-69
2022/12/05 07:08:03;;;;;;;6.60;3.60;;;;;;;;;;1741435;82;21531;-69
2022/12/05 07:10:29;;;;;;;10.18;4.47;;;;;;;;;;1745028;80;21058;-69
2022/12/05 07:12:56;;;;;;;7.10;4.33;;;;;;;;;;1760413;79;21075;-69
2022/12/05 07:15:22;;;;;;;10.32;4.42;;;;;;;;;;1743593;81;21059;-69
2022/12/05 07:17:48;;;;;;;7.37;4.83;;;;;;;;;;1747967;80;21050;-69
2022/12/05 07:20:16;;;;;;;7.72;4.12;;;;;;;;;;1747333;80;21124;-70
2022/12/05 07:22:44;;;;;;;10.20;3.87;;;;;;;;;;1743725;80;22314;-70
2022/12/05 07:25:10;;;;;;;11.28;5.78;;;;;;;;;;1758657;79;21071;-69
2022/12/05 07:27:36;;;;;;;11.55;5.72;;;;;;;;;;1776716;79;21040;-70
2022/12/05 07:30:03;;;;;;;9.38;4.00;;;;;;;;;;1775686;79;21005;-70
2022/12/05 07:32:31;;;;;;;9.13;5.33;;;;;;;;;;1746773;81;22367;-70
2022/12/05 07:34:57;;;;;;;7.67;4.20;;;;;;;;;;1753427;81;21465;-69
2022/12/05 07:37:23;;;;;;;9.00;4.17;;;;;;;;;;1752135;80;22088;-70
2022/12/05 07:39:50;;;;;;;10.15;4.62;;;;;;;;;;1756894;80;21019;-70
2022/12/05 07:42:16;;;;;;;10.68;5.25;;;;;;;;;;1754054;80;21078;-70
2022/12/05 07:44:42;;;;;;;9.75;4.87;;;;;;;;;;1755649;80;21015;-70
2022/12/05 07:47:08;;;;;;;8.13;4.20;;;;;;;;;;1754620;81;21043;-70
2022/12/05 07:49:35;;;;;;;9.73;5.17;;;;;;;;;;1755012;80;21034;-69
2022/12/05 07:52:02;;;;;;;11.15;4.75;;;;;;;;;;1776748;79;21108;-69
2022/12/05 07:54:28;;;;;;;8.85;4.90;;;;;;;;;;1723748;81;21063;-70
2022/12/05 07:56:54;;;;;;;7.47;4.58;;;;;;;;;;1776220;79;21640;-69
2022/12/05 07:59:20;;;;;;;8.73;4.72;;;;;;;;;;1776988;79;21530;-68
2022/12/05 08:01:46;;;;;;;7.30;4.20;;;;;;;;;;1777974;79;21061;-67
2022/12/05 08:04:12;;;;;;;7.97;4.53;;;;;;;;;;1749795;80;21097;-70
2022/12/05 08:06:39;;;;;;;7.92;4.20;;;;;;;;;;1782371;80;21030;-69
2022/12/05 08:09:05;;;;;;;7.50;4.30;;;;;;;;;;1781498;79;21002;-68
2022/12/05 08:11:35;;;;;;;8.60;5.25;;;;;;;;;;1782379;79;21092;-68
2022/12/05 08:14:03;;;;;;;7.33;4.10;;;;;;;;;;1747870;80;21183;-68
2022/12/05 08:16:30;;;;;;;7.22;4.10;;;;;;;;;;1780619;79;21175;-68
2022/12/05 08:19:00;;;;;;;7.80;4.10;;;;;;;;;;1777359;79;21011;-67
2022/12/05 08:21:27;;;;;;;9.55;4.55;;;;;;;;;;1786769;79;21032;-70
2022/12/05 08:23:53;;;;;;;9.00;4.78;;;;;;;;;;1776860;80;20979;-69
2022/12/05 08:26:20;;;;;;;8.75;4.58;;;;;;;;;;1763675;81;21019;-69
2022/12/05 08:28:48;;;;;;;7.85;4.53;;;;;;;;;;1754850;80;21024;-69
2022/12/05 08:31:15;;;;;;;10.05;4.62;;;;;;;;;;1773626;79;21002;-69
2022/12/05 08:33:41;;;;;;;8.15;4.47;;;;;;;;;;1759348;80;20999;-69
2022/12/05 08:36:08;;;;;;;7.03;3.80;;;;;;;;;;1785680;79;21486;-69
2022/12/05 08:38:34;;;;;;;9.10;4.17;;;;;;;;;;1787289;79;20972;-69
2022/12/05 08:41:03;;;;;;;7.72;4.53;;;;;;;;;;1787519;79;21490;-69
2022/12/05 08:43:29;;;;;;;6.28;3.85;;;;;;;;;;1790748;80;20992;-69
2022/12/05 08:45:55;;;;;;;9.78;4.45;;;;;;;;;;1786591;79;21039;-69
2022/12/05 08:48:22;;;;;;;9.45;5.00;;;;;;;;;;1770699;79;21079;-71
2022/12/05 08:50:48;;;;;;;11.65;4.83;;;;;;;;;;1777412;79;21074;-69
2022/12/05 08:53:14;;;;;;;14.75;6.87;;;;;;;;;;1748203;81;21027;-70
2022/12/05 08:55:40;;;;;;;9.78;5.37;;;;;;;;;;1749733;81;21157;-70
2022/12/05 08:58:06;;;;;;;9.58;5.37;;;;;;;;;;1753096;81;21432;-69
2022/12/05 09:00:32;;;;;;;17.07;7.95;;;;;;;;;;1747752;80;20980;-70
2022/12/05 09:02:59;;;;;;;11.22;5.60;;;;;;;;;;1754459;80;20987;-69
2022/12/05 09:05:25;;;;;;;11.80;6.87;;;;;;;;;;1752449;81;21558;-70
2022/12/05 09:07:51;;;;;;;12.70;6.35;;;;;;;;;;1758469;81;21058;-70
2022/12/05 09:10:17;;;;;;;11.70;4.65;;;;;;;;;;1744475;82;21060;-70
2022/12/05 09:12:44;;;;;;;7.65;4.30;;;;;;;;;;1756402;81;21165;-69
2022/12/05 09:15:10;;;;;;;11.12;5.03;;;;;;;;;;1782770;80;21533;-69
2022/12/05 09:17:37;;;;;;;10.15;5.00;;;;;;;;;;1772517;80;21034;-68
2022/12/05 09:20:03;;;;;;;17.30;5.15;;;;;;;;;;1752060;80;21542;-69
2022/12/05 09:22:30;;;;;;;11.57;4.92;;;;;;;;;;1776412;79;21042;-69
2022/12/05 09:24:55;;;;;;;12.58;5.58;;;;;;;;;;1759409;80;21608;-68
2022/12/05 09:27:21;;;;;;;7.47;5.22;;;;;;;;;;1722863;83;21575;-69
2022/12/05 09:29:48;;;;;;;8.33;4.97;;;;;;;;;;1722533;83;21128;-70
2022/12/05 09:32:14;;;;;;;6.58;4.17;;;;;;;;;;1723066;83;20985;-69
2022/12/05 09:34:40;;;;;;;11.03;4.80;;;;;;;;;;1719986;83;21101;-69
2022/12/05 09:37:06;;;;;;;8.43;4.45;;;;;;;;;;1722421;83;21463;-70
2022/12/05 09:39:33;;;;;;;9.73;5.33;;;;;;;;;;1721618;83;21079;-69
2022/12/05 09:42:18;;;;;;;9.73;4.78;;;;;;;;;;1720066;83;21554;-70
2022/12/05 09:45:01;;;;;;;9.40;4.75;;;;;;;;;;1721772;83;21084;-71
2022/12/05 09:47:46;;;;;;;11.23;6.30;;;;;;;;;;1723066;83;21056;-71
2022/12/05 09:50:17;;;;;;;8.30;4.97;;;;;;;;;;1717319;83;20965;-70
2022/12/05 09:52:51;;;;;;;8.83;4.80;;;;;;;;;;1714731;83;21861;-70
2022/12/05 09:55:18;;;;;;;7.85;4.47;;;;;;;;;;1721964;83;21055;-70
2022/12/05 09:57:48;;;;;;;7.10;4.22;;;;;;;;;;1722102;82;20973;-70
2022/12/05 10:00:14;;;;;;;8.03;5.00;;;;;;;;;;1710798;82;21126;-70
2022/12/05 10:02:58;;;;;;;11.25;5.45;;;;;;;;;;1683093;83;21829;-74
2022/12/05 10:05:26;;;;;;;7.17;3.83;;;;;;;;;;1712435;82;21072;-74
2022/12/05 10:07:54;;;;;;;9.73;5.50;;;;;;;;;;1729833;81;21114;-75
2022/12/05 10:10:22;;;;;;;5.42;4.17;;;;;;;;;;1698393;81;21098;-76
2022/12/05 10:12:52;;;;;;;8.70;5.28;;;;;;;;;;1735642;81;21032;-76
2022/12/05 10:15:37;;;;;;;8.48;5.12;;;;;;;;;;1740005;81;22301;-76
2022/12/05 10:18:11;;;;;;;9.50;4.85;;;;;;;;;;1739335;81;21411;-76
2022/12/05 10:20:40;;;;;;;9.73;4.80;;;;;;;;;;1733644;81;21549;-77
2022/12/05 10:23:07;;;;;;;12.00;4.95;;;;;;;;;;1729136;81;21035;-75
2022/12/05 10:25:35;;;;;;;12.03;5.92;;;;;;;;;;1720609;81;21048;-78
2022/12/05 10:28:02;;;;;;;8.10;4.97;;;;;;;;;;1746294;81;21083;-76
2022/12/05 10:30:29;;;;;;;9.60;5.25;;;;;;;;;;1752058;81;21094;-78
2022/12/05 10:32:59;;;;;;;9.30;5.03;;;;;;;;;;1738367;82;21051;-77
2022/12/05 10:35:25;;;;;;;14.53;6.97;;;;;;;;;;1771900;80;21102;-78
2022/12/05 10:37:53;;;;;;;7.87;4.53;;;;;;;;;;1732196;82;21027;-81
2022/12/05 10:40:19;;;;;;;9.18;5.17;;;;;;;;;;1767100;81;21438;-76
2022/12/05 10:42:45;;;;;;;13.45;5.90;;;;;;;;;;1771400;80;21004;-77
2022/12/05 10:45:16;;;;;;;11.50;5.10;;;;;;;;;;1773509;80;21051;-77
2022/12/05 10:47:42;;;;;;;9.75;5.20;;;;;;;;;;1772063;80;21024;-76
2022/12/05 10:50:26;;;;;;;8.78;4.58;;;;;;;;;;1771579;80;21035;-76
2022/12/05 10:52:52;;;;;;;9.98;5.75;;;;;;;;;;1771948;80;20973;-75
2022/12/05 10:55:19;;;;;;;8.55;4.33;;;;;;;;;;1774274;80;21013;-75
2022/12/05 10:57:46;;;;;;;9.98;5.17;;;;;;;;;;1723703;82;20987;-75
2022/12/05 11:12:48;;;;;;;14.13;6.85;;;;;;;;;;1816056;77;23371;-71
2022/12/05 11:15:18;;;;;;;12.10;6.72;;;;;;;;;;1701134;77;79257;-71
2022/12/05 11:17:44;;;;;;;12.10;8.28;;;;;;;;;;1719982;81;22232;-74
2022/12/05 11:20:18;;;;;;;14.78;9.30;;;;;;;;;;1715666;83;21017;-76
2022/12/05 11:22:45;;;;;;;16.32;9.25;;;;;;;;;;1700682;83;21058;-75
2022/12/05 11:25:23;;;;;;;19.73;9.68;;;;;;;;;;1707947;81;21028;-72
2022/12/05 11:27:51;;;;;;;12.98;8.45;;;;;;;;;;1721560;83;21020;-79
2022/12/05 11:30:18;;;;;;;14.18;8.10;;;;;;;;;;1723064;83;22225;-80
2022/12/05 11:32:44;;;;;;;15.72;9.48;;;;;;;;;;1718796;81;21060;-80
2022/12/05 11:35:12;;;;;;;12.70;9.05;;;;;;;;;;1721751;81;21547;-78
2022/12/05 11:37:57;;;;;;;13.28;9.50;;;;;;;;;;1720734;83;21047;-80
2022/12/05 11:40:43;;;;;;;16.85;9.80;;;;;;;;;;1723080;83;21024;-80
2022/12/05 11:43:17;;;;;;;15.08;8.30;;;;;;;;;;1709246;83;21722;-79
2022/12/05 11:45:43;;;;;;;;;;;;;;;;;;1692177;83;21582;-81
2022/12/05 11:48:27;;;;;;;18.37;9.85;;;;;;;;;;1685980;83;20315;-76
2022/12/05 11:51:13;;;;;;;17.30;9.18;;;;;;;;;;1717186;83;20993;-76
2022/12/05 11:53:47;;;;;;;14.03;8.53;;;;;;;;;;1717438;83;21040;-79
2022/12/05 11:56:18;;;;;;;13.35;7.25;;;;;;;;;;1712586;82;21440;-74
2022/12/05 11:58:46;;;;;;;14.10;7.28;;;;;;;;;;1712356;82;21032;-75
2022/12/05 12:01:27;;;;;;;15.10;8.98;;;;;;;;;;1720273;81;21107;-77
2022/12/05 12:04:01;;;;;;;15.55;8.20;;;;;;;;;;1728931;81;21039;-78
2022/12/05 12:06:31;;;;;;;12.73;6.42;;;;;;;;;;1722182;81;21079;-76
2022/12/05 12:08:59;;;;;;;14.80;8.23;;;;;;;;;;1718424;81;21104;-77
2022/12/05 12:11:43;;;;;;;14.53;7.17;;;;;;;;;;1722370;81;21107;-79
2022/12/05 12:14:11;;;;;;;14.58;6.42;;;;;;;;;;1708652;81;21072;-82
2022/12/05 12:16:45;;;;;;;14.78;6.90;;;;;;;;;;1721680;83;21064;-79
2022/12/05 12:19:14;;;;;;;12.82;6.20;;;;;;;;;;1719756;82;21888;-81
2022/12/05 12:24:46;;;;;;;15.40;7.62;;;;;;;;;;1722944;82;21059;-80
2022/12/05 12:27:26;;;;;;;12.88;9.08;;;;;;;;;;1670193;83;21063;-82
2022/12/05 12:30:06;;;;;;;14.33;7.42;;;;;;;;;;1675521;84;21058;-80
2022/12/05 12:32:53;;;;;;;12.18;6.42;;;;;;;;;;1708723;82;21080;-81
2022/12/05 12:35:38;;;;;;;9.70;6.10;;;;;;;;;;1686027;83;21088;-81
2022/12/05 12:38:09;;;;;;;10.93;7.47;;;;;;;;;;1642497;86;21084;-80
2022/12/05 12:40:40;;;;;;;12.88;5.55;;;;;;;;;;1716592;82;21563;-78
2022/12/05 12:43:25;;;;;;;10.58;6.03;;;;;;;;;;1678002;83;21077;-82
2022/12/05 12:45:53;;;;;;;11.90;6.50;;;;;;;;;;1720977;83;21090;-81
2022/12/05 12:48:27;;;;;;;10.82;6.08;;;;;;;;;;1688899;84;21053;-79
2022/12/05 12:50:53;;;;;;;8.25;5.17;;;;;;;;;;1686437;84;21084;-80
2022/12/05 12:53:36;;;;;;;13.10;7.42;;;;;;;;;;1714307;82;21002;-73
2022/12/05 12:56:08;;;;;;;10.55;5.30;;;;;;;;;;1679474;85;21094;-80
2022/12/05 12:58:36;;;;;;;13.62;5.92;;;;;;;;;;1685035;83;21080;-81
2022/12/05 13:01:10;;;;;;;11.48;6.65;;;;;;;;;;1714017;82;21061;-79
2022/12/05 13:03:38;;;;;;;15.85;6.62;;;;;;;;;;1689982;83;21040;-78
2022/12/05 13:06:09;;;;;;;12.45;6.75;;;;;;;;;;1709348;82;21032;-82
2022/12/05 13:08:37;;;;;;;12.98;6.55;;;;;;;;;;1701845;81;21581;-82
2022/12/05 13:11:05;;;;;;;12.82;6.65;;;;;;;;;;1699370;83;21076;-81
2022/12/05 13:13:35;;;;;;;15.95;7.40;;;;;;;;;;1722864;83;21604;-82
2022/12/05 13:16:05;;;;;;;10.00;5.97;;;;;;;;;;1664152;85;21110;-83
2022/12/05 13:18:31;;;;;;;13.08;7.30;;;;;;;;;;1662616;86;21075;-83
2022/12/05 13:20:58;;;;;;;13.68;6.08;;;;;;;;;;1724691;82;21060;-83
2022/12/05 13:23:26;;;;;;;15.28;6.85;;;;;;;;;;1727350;81;21188;-82
2022/12/05 13:25:52;;;;;;;13.30;6.85;;;;;;;;;;1719289;83;21025;-81
2022/12/05 13:28:30;;;;;;;18.23;7.45;;;;;;;;;;1701531;83;21579;-83
2022/12/05 13:30:56;;;;;;;10.15;5.70;;;;;;;;;;1683602;84;21347;-83
2022/12/05 13:33:26;;;;;;;13.13;7.22;;;;;;;;;;1680073;83;22102;-80
2022/12/05 13:44:32;;;;;;;7.33;5.05;;;;;;;;;;1736272;81;21108;-81
2022/12/05 13:46:58;;;;;;;12.00;6.35;;;;;;;;;;1685716;85;21595;-82
2022/12/05 13:49:28;;;;;;;11.88;5.20;;;;;;;;;;1665825;85;20977;-83
2022/12/05 13:51:54;;;;;;;10.18;5.97;;;;;;;;;;1717219;83;21623;-81
2022/12/05 13:54:21;;;;;;;11.88;5.75;;;;;;;;;;1701380;81;21012;-81
2022/12/05 13:56:49;;;;;;;9.13;5.22;;;;;;;;;;1724805;81;21008;-80
2022/12/05 13:59:34;;;;;;;9.73;5.60;;;;;;;;;;1678835;85;21052;-81
2022/12/05 14:02:00;;;;;;;10.45;4.87;;;;;;;;;;1678936;84;21014;-80
2022/12/05 14:04:40;;;;;;;10.00;5.35;;;;;;;;;;1685857;83;21099;-81
2022/12/05 14:07:07;;;;;;;9.15;4.87;;;;;;;;;;1685238;83;21202;-80
2022/12/05 14:09:36;;;;;;;9.25;4.50;;;;;;;;;;1709873;81;21622;-80
2022/12/05 14:12:12;;;;;;;8.20;4.60;;;;;;;;;;1706431;81;21083;-80
2022/12/05 14:15:00;;;;;;;11.97;5.30;;;;;;;;;;1709291;82;21056;-79
2022/12/05 14:17:28;;;;;;;7.00;3.98;;;;;;;;;;1719630;82;21031;-80
2022/12/05 14:19:55;;;;;;;11.00;4.45;;;;;;;;;;1741313;82;21040;-81
2022/12/05 14:22:30;;;;;;;8.73;4.22;;;;;;;;;;1697037;83;21036;-80
2022/12/05 14:24:58;;;;;;;9.53;5.30;;;;;;;;;;1722981;81;21056;-82
2022/12/05 14:27:39;;;;;;;7.75;4.35;;;;;;;;;;1677441;85;20998;-80
2022/12/05 14:30:21;;;;;;;11.48;5.80;;;;;;;;;;1687960;84;21032;-80
2022/12/05 14:32:47;;;;;;;11.78;5.90;;;;;;;;;;1690276;83;20981;-81
2022/12/05 14:35:30;;;;;;;9.08;5.15;;;;;;;;;;1713725;82;21048;-79
2022/12/05 14:38:06;;;;;;;10.93;5.50;;;;;;;;;;1721507;82;21640;-80
2022/12/05 14:40:33;;;;;;;7.08;5.20;;;;;;;;;;1707569;83;21115;-82
2022/12/05 14:43:02;;;;;;;10.58;6.35;;;;;;;;;;1684217;84;20990;-82
2022/12/05 14:45:33;;;;;;;9.03;4.92;;;;;;;;;;1703706;83;21022;-79
2022/12/05 14:48:02;;;;;;;8.83;5.83;;;;;;;;;;1710802;82;21047;-79
2022/12/05 14:50:36;;;;;;;13.80;5.90;;;;;;;;;;1692599;82;21052;-78
2022/12/05 14:53:07;;;;;;;12.28;5.50;;;;;;;;;;1706222;82;21032;-78
2022/12/05 14:55:34;;;;;;;10.08;5.40;;;;;;;;;;1692849;83;21582;-80
2022/12/05 14:58:00;;;;;;;10.85;5.58;;;;;;;;;;1722241;81;21039;-79
2022/12/05 15:00:26;;;;;;;8.40;5.40;;;;;;;;;;1707850;83;21574;-76
2022/12/05 15:02:54;;;;;;;11.08;5.85;;;;;;;;;;1678461;83;21038;-78
2022/12/05 15:05:25;;;;;;;16.35;7.80;;;;;;;;;;1663341;86;21009;-79
2022/12/05 15:07:52;;;;;;;8.50;5.17;;;;;;;;;;1682208;85;21037;-78
2022/12/05 15:10:22;;;;;;;10.63;5.28;;;;;;;;;;1680899;83;21026;-78
2022/12/05 15:12:59;;;;;;;10.93;5.53;;;;;;;;;;1662819;84;21100;-79
2022/12/05 15:15:45;;;;;;;12.50;6.45;;;;;;;;;;1688546;84;21064;-82
2022/12/05 15:18:22;;;;;;;11.75;5.45;;;;;;;;;;1661781;85;21044;-81
2022/12/05 15:20:58;;;;;;;12.82;5.78;;;;;;;;;;1674479;84;21052;-78
2022/12/05 15:23:43;;;;;;;13.45;6.92;;;;;;;;;;1675346;84;21022;-80
2022/12/05 15:26:20;;;;;;;9.23;5.42;;;;;;;;;;1686926;84;21045;-76
2022/12/05 15:28:57;;;;;;;10.08;5.55;;;;;;;;;;1691733;83;21035;-82
2022/12/05 15:31:25;;;;;;;8.90;6.12;;;;;;;;;;1692965;83;21049;-78
2022/12/05 15:33:51;;;;;;;13.13;6.25;;;;;;;;;;1682867;84;21082;-78
2022/12/05 15:36:18;;;;;;;11.73;5.67;;;;;;;;;;1674351;85;21572;-75
2022/12/05 15:38:44;;;;;;;13.18;6.55;;;;;;;;;;1643200;85;21067;-77
2022/12/05 15:41:16;;;;;;;12.98;5.55;;;;;;;;;;1668820;85;21558;-78
2022/12/05 15:43:44;;;;;;;11.45;6.30;;;;;;;;;;1668327;85;21031;-82
2022/12/05 15:46:22;;;;;;;9.03;5.50;;;;;;;;;;1645621;85;21649;-81
2022/12/05 15:48:49;;;;;;;11.22;6.22;;;;;;;;;;1677819;85;21047;-74
2022/12/05 15:54:11;;;;;;;10.28;5.95;;;;;;;;;;1650069;85;21085;-83
2022/12/05 15:56:39;;;;;;;11.63;6.40;;;;;;;;;;1676730;84;21066;-80
2022/12/05 15:59:07;;;;;;;16.73;7.05;;;;;;;;;;1714190;83;21059;-80
2022/12/05 16:01:34;;;;;;;12.68;6.20;;;;;;;;;;1709582;83;21070;-81
2022/12/05 16:04:02;;;;;;;11.95;7.53;;;;;;;;;;1702509;83;21073;-80
2022/12/05 16:06:34;;;;;;;14.68;7.08;;;;;;;;;;1702515;83;21569;-81
2022/12/05 16:09:03;;;;;;;14.83;7.40;;;;;;;;;;1702539;83;21069;-81
2022/12/05 16:11:29;;;;;;;14.55;8.58;;;;;;;;;;1656729;85;21062;-80
2022/12/05 16:13:56;;;;;;;15.08;7.58;;;;;;;;;;1652668;85;20981;-81
2022/12/05 16:16:23;;;;;;;15.63;7.55;;;;;;;;;;1707262;82;21566;-81
2022/12/05 16:18:49;;;;;;;18.95;9.40;;;;;;;;;;1705012;82;21011;-80
2022/12/05 16:21:34;;;;;;;14.45;7.30;;;;;;;;;;1705882;82;21047;-81
2022/12/05 16:24:01;;;;;;;14.58;7.47;;;;;;;;;;1703623;82;21053;-82
2022/12/05 16:26:27;;;;;;;15.10;7.83;;;;;;;;;;1712783;82;21038;-79
2022/12/05 16:29:00;;;;;;;14.30;6.67;;;;;;;;;;1712164;82;21030;-78
2022/12/05 16:31:29;;;;;;;15.23;6.23;;;;;;;;;;1692434;84;21541;-78
2022/12/05 16:33:59;;;;;;;15.13;7.22;;;;;;;;;;1656591;85;21495;-79
2022/12/05 16:36:25;;;;;;;14.80;7.00;;;;;;;;;;1673072;84;21086;-79
2022/12/05 16:38:53;;;;;;;16.00;7.87;;;;;;;;;;1719416;83;21108;-78
2022/12/05 16:41:21;;;;;;;22.87;9.80;;;;;;;;;;1724259;83;21489;-80
2022/12/05 16:43:48;;;;;;;22.75;11.25;;;;;;;;;;1704130;84;21046;-81
2022/12/05 16:46:16;;;;;;;14.75;8.28;;;;;;;;;;1671303;85;21079;-83
2022/12/05 16:48:43;;;;;;;14.55;7.03;;;;;;;;;;1704233;84;21014;-79
2022/12/05 16:51:14;;;;;;;11.30;6.90;;;;;;;;;;1684747;84;21086;-79
2022/12/05 16:53:41;;;;;;;15.32;7.03;;;;;;;;;;1710938;83;21554;-82
2022/12/05 16:56:12;;;;;;;17.20;7.47;;;;;;;;;;1704877;83;21215;-83
2022/12/05 16:58:38;;;;;;;17.85;8.20;;;;;;;;;;1703028;83;21065;-84
2022/12/05 17:01:04;;;;;;;19.20;8.75;;;;;;;;;;1674798;84;21565;-82
2022/12/05 17:03:32;;;;;;;18.75;8.38;;;;;;;;;;1723739;83;21482;-81
2022/12/05 17:05:58;;;;;;;20.32;10.25;;;;;;;;;;1696026;84;21021;-80
2022/12/05 17:08:25;;;;;;;12.05;7.08;;;;;;;;;;1718951;83;21060;-81
2022/12/05 17:10:51;;;;;;;19.00;10.35;;;;;;;;;;1707604;83;21115;-79
2022/12/05 17:13:17;;;;;;;17.67;8.88;;;;;;;;;;1683030;84;20977;-78
2022/12/05 17:15:44;;;;;;;16.32;6.83;;;;;;;;;;1730828;83;21022;-81
2022/12/05 17:18:15;;;;;;;16.75;7.75;;;;;;;;;;1673576;84;21091;-78
2022/12/05 17:20:42;;;;;;;21.02;8.43;;;;;;;;;;1700140;83;21055;-79
2022/12/05 17:23:10;;;;;;;18.48;8.55;;;;;;;;;;1695584;83;21044;-79
2022/12/05 17:25:36;;;;;;;16.48;7.28;;;;;;;;;;1691123;83;21108;-79
2022/12/05 17:28:02;;;;;;;12.70;6.78;;;;;;;;;;1691236;85;21144;-79
2022/12/05 17:30:29;;;;;;;16.37;7.87;;;;;;;;;;1694580;83;21031;-79
2022/12/05 17:32:55;;;;;;;13.53;6.85;;;;;;;;;;1702225;83;20981;-81
2022/12/05 17:35:21;;;;;;;13.45;6.35;;;;;;;;;;1698986;83;21101;-81
2022/12/05 17:37:47;;;;;;;15.20;6.92;;;;;;;;;;1710833;83;20992;-80
2022/12/05 17:40:16;;;;;;;21.42;9.48;;;;;;;;;;1700243;83;20999;-79
2022/12/05 17:42:42;;;;;;;15.45;8.13;;;;;;;;;;1697023;83;21099;-79
2022/12/05 17:45:10;;;;;;;11.48;6.62;;;;;;;;;;1699095;83;21585;-80
2022/12/05 17:47:36;;;;;;;14.20;7.33;;;;;;;;;;1720684;83;21023;-79